Time;durP1;ratioP1;P1;durP2;ratioP2;P2;SDS_P1;SDS_P2;PMS_P1;PMS_P2;Temp;Humidity;BMP_temperature;BMP_pressure;BME280_temperature;BME280_humidity;BME280_pressure;Samples;Min_cycle;Max_cycle;Signal;HPM_P1;HPM_P2
2023/07/02 00:00:09;;;;;;;4.93;3.15;;;;;;;;;;5039403;28;20044;-64
2023/07/02 00:02:35;;;;;;;8.95;3.97;;;;;;;;;;5040206;28;20125;-63
2023/07/02 00:05:01;;;;;;;4.28;3.47;;;;;;;;;;5036437;28;20041;-63
2023/07/02 00:07:28;;;;;;;5.22;3.60;;;;;;;;;;5038689;28;20045;-63
2023/07/02 00:09:54;;;;;;;4.63;2.88;;;;;;;;;;5035183;28;20041;-63
2023/07/02 00:12:20;;;;;;;5.70;3.25;;;;;;;;;;5034209;28;20699;-63
2023/07/02 00:14:47;;;;;;;4.57;2.90;;;;;;;;;;5036139;28;20054;-63
2023/07/02 00:17:13;;;;;;;3.85;3.22;;;;;;;;;;5040014;28;20037;-63
2023/07/02 00:19:42;;;;;;;4.90;2.83;;;;;;;;;;5035379;28;20102;-63
2023/07/02 00:22:11;;;;;;;3.33;2.33;;;;;;;;;;5042754;28;20041;-63
2023/07/02 00:24:37;;;;;;;5.88;3.50;;;;;;;;;;5038317;28;20045;-63
2023/07/02 00:27:03;;;;;;;5.03;3.08;;;;;;;;;;5036483;28;20465;-63
2023/07/02 00:29:29;;;;;;;6.30;3.67;;;;;;;;;;5035178;28;20052;-63
2023/07/02 00:31:55;;;;;;;9.13;4.30;;;;;;;;;;5030857;28;20038;-63
2023/07/02 00:34:21;;;;;;;6.53;4.05;;;;;;;;;;5033232;28;20067;-63
2023/07/02 00:36:47;;;;;;;5.93;3.30;;;;;;;;;;5036823;28;20474;-63
2023/07/02 00:39:13;;;;;;;5.75;3.42;;;;;;;;;;5037867;28;20098;-63
2023/07/02 00:41:41;;;;;;;3.60;2.92;;;;;;;;;;5031086;28;20505;-63
2023/07/02 00:44:10;;;;;;;3.97;3.03;;;;;;;;;;5036122;28;20537;-63
2023/07/02 00:46:36;;;;;;;5.63;3.42;;;;;;;;;;5035503;28;20041;-63
2023/07/02 00:49:04;;;;;;;4.75;3.13;;;;;;;;;;5040104;28;20036;-63
2023/07/02 00:51:30;;;;;;;5.53;3.45;;;;;;;;;;5038780;28;20032;-63
2023/07/02 00:53:58;;;;;;;6.75;4.32;;;;;;;;;;5034554;28;20041;-63
2023/07/02 00:56:25;;;;;;;8.68;4.35;;;;;;;;;;5033661;28;20045;-63
2023/07/02 00:58:52;;;;;;;3.95;3.25;;;;;;;;;;5038896;28;20086;-63
2023/07/02 01:01:19;;;;;;;9.30;4.75;;;;;;;;;;5032762;28;20870;-63
2023/07/02 01:03:56;;;;;;;5.22;3.75;;;;;;;;;;5038952;28;20091;-63
2023/07/02 01:06:29;;;;;;;4.40;3.33;;;;;;;;;;5038696;28;20592;-63
2023/07/02 01:08:56;;;;;;;5.63;3.58;;;;;;;;;;5036397;28;20528;-63
2023/07/02 01:11:24;;;;;;;7.47;3.67;;;;;;;;;;5033160;28;20068;-63
2023/07/02 01:13:51;;;;;;;6.78;4.65;;;;;;;;;;5032317;28;20044;-63
2023/07/02 01:16:17;;;;;;;10.70;5.03;;;;;;;;;;5033383;28;20041;-63
2023/07/02 01:18:44;;;;;;;6.05;3.40;;;;;;;;;;5033251;28;20045;-63
2023/07/02 01:21:10;;;;;;;7.72;4.10;;;;;;;;;;5037867;28;20041;-63
2023/07/02 01:23:36;;;;;;;5.72;3.45;;;;;;;;;;5036610;28;20382;-63
2023/07/02 01:26:02;;;;;;;7.88;4.60;;;;;;;;;;5035380;28;20045;-63
2023/07/02 01:28:35;;;;;;;6.75;3.58;;;;;;;;;;5033158;28;20044;-63
2023/07/02 01:31:01;;;;;;;4.70;3.20;;;;;;;;;;5037394;28;20056;-63
2023/07/02 01:33:27;;;;;;;5.65;3.47;;;;;;;;;;5032184;28;20046;-62
2023/07/02 01:35:53;;;;;;;6.93;3.58;;;;;;;;;;5036414;28;20389;-62
2023/07/02 01:38:19;;;;;;;5.25;3.45;;;;;;;;;;5033380;28;20032;-62
2023/07/02 01:40:45;;;;;;;6.88;4.20;;;;;;;;;;5035730;28;20139;-62
2023/07/02 01:43:11;;;;;;;4.35;3.70;;;;;;;;;;5034400;28;20454;-62
2023/07/02 01:45:38;;;;;;;8.10;3.95;;;;;;;;;;5033180;28;20044;-62
2023/07/02 01:48:04;;;;;;;7.97;4.13;;;;;;;;;;5037918;28;20056;-62
2023/07/02 01:50:30;;;;;;;7.28;4.05;;;;;;;;;;5032998;28;20098;-62
2023/07/02 01:52:56;;;;;;;8.77;3.90;;;;;;;;;;5035578;28;20037;-62
2023/07/02 01:55:22;;;;;;;10.38;4.43;;;;;;;;;;5037507;28;20048;-62
2023/07/02 01:57:48;;;;;;;6.72;3.55;;;;;;;;;;5035675;28;20045;-62
2023/07/02 02:00:15;;;;;;;7.85;4.18;;;;;;;;;;5039716;28;20040;-62
2023/07/02 02:02:41;;;;;;;6.72;4.28;;;;;;;;;;5038531;28;20572;-62
2023/07/02 02:05:08;;;;;;;5.53;3.60;;;;;;;;;;5037751;28;20132;-62
2023/07/02 02:07:35;;;;;;;5.10;3.33;;;;;;;;;;5030434;28;20037;-62
2023/07/02 02:10:01;;;;;;;6.03;3.67;;;;;;;;;;5032471;28;20088;-62
2023/07/02 02:12:28;;;;;;;6.63;3.38;;;;;;;;;;5034313;28;20061;-62
2023/07/02 02:14:54;;;;;;;6.30;3.70;;;;;;;;;;5034228;28;20506;-62
2023/07/02 02:17:20;;;;;;;7.43;3.95;;;;;;;;;;5033715;28;20393;-61
2023/07/02 02:19:46;;;;;;;5.13;3.40;;;;;;;;;;5028775;28;20042;-63
2023/07/02 02:22:12;;;;;;;3.45;2.65;;;;;;;;;;5033198;28;20095;-63
2023/07/02 02:24:38;;;;;;;5.55;3.35;;;;;;;;;;5033124;28;20044;-63
2023/07/02 02:27:04;;;;;;;6.47;3.28;;;;;;;;;;5033918;28;20671;-63
2023/07/02 02:29:30;;;;;;;6.55;4.00;;;;;;;;;;5034206;28;20052;-63
2023/07/02 02:31:56;;;;;;;7.38;3.65;;;;;;;;;;5037289;28;20041;-63
2023/07/02 02:34:22;;;;;;;4.18;3.10;;;;;;;;;;5033760;28;20098;-63
2023/07/02 02:36:49;;;;;;;6.65;4.03;;;;;;;;;;5037628;28;20040;-63
2023/07/02 02:39:15;;;;;;;11.13;5.20;;;;;;;;;;5028865;28;20114;-63
2023/07/02 02:41:41;;;;;;;10.68;5.40;;;;;;;;;;5033041;28;20049;-63
2023/07/02 02:44:07;;;;;;;7.22;4.07;;;;;;;;;;5032179;28;20037;-63
2023/07/02 02:46:33;;;;;;;7.47;4.80;;;;;;;;;;5034600;28;20051;-63
2023/07/02 02:48:59;;;;;;;9.55;5.05;;;;;;;;;;5030400;28;20739;-63
2023/07/02 02:51:25;;;;;;;8.65;5.13;;;;;;;;;;5032001;28;20037;-62
2023/07/02 02:53:51;;;;;;;8.80;4.70;;;;;;;;;;5031412;28;20146;-62
2023/07/02 02:56:17;;;;;;;7.03;4.35;;;;;;;;;;5034170;28;20099;-62
2023/07/02 02:58:44;;;;;;;6.57;4.65;;;;;;;;;;5032409;28;20392;-62
2023/07/02 03:01:10;;;;;;;8.13;5.28;;;;;;;;;;5033922;28;20072;-63
2023/07/02 03:03:40;;;;;;;10.30;5.00;;;;;;;;;;5030276;28;20037;-63
2023/07/02 03:06:06;;;;;;;7.28;4.55;;;;;;;;;;5033029;28;20402;-63
2023/07/02 03:08:32;;;;;;;9.90;5.05;;;;;;;;;;5033114;28;20051;-63
2023/07/02 03:10:58;;;;;;;8.45;5.30;;;;;;;;;;5030703;28;20517;-63
2023/07/02 03:13:24;;;;;;;9.52;4.90;;;;;;;;;;5031745;28;20521;-63
2023/07/02 03:15:50;;;;;;;8.65;4.47;;;;;;;;;;5032972;28;20045;-63
2023/07/02 03:18:16;;;;;;;7.15;5.05;;;;;;;;;;5031130;28;20099;-63
2023/07/02 03:20:43;;;;;;;8.63;4.97;;;;;;;;;;5034804;28;21090;-63
2023/07/02 03:23:09;;;;;;;9.95;5.93;;;;;;;;;;5031985;28;20119;-63
2023/07/02 03:25:35;;;;;;;11.00;4.78;;;;;;;;;;5029589;28;20080;-63
2023/07/02 03:28:01;;;;;;;7.47;4.50;;;;;;;;;;5031610;28;20544;-63
2023/07/02 03:30:27;;;;;;;8.68;5.10;;;;;;;;;;5034260;28;20044;-63
2023/07/02 03:32:53;;;;;;;6.43;3.92;;;;;;;;;;5031572;28;20128;-63
2023/07/02 03:35:19;;;;;;;6.30;4.03;;;;;;;;;;5031409;28;20128;-63
2023/07/02 03:37:46;;;;;;;10.90;4.53;;;;;;;;;;5036522;28;20777;-63
2023/07/02 03:40:12;;;;;;;7.72;4.25;;;;;;;;;;5029582;28;20049;-63
2023/07/02 03:42:38;;;;;;;5.53;3.70;;;;;;;;;;5035889;28;20091;-63
2023/07/02 03:45:04;;;;;;;5.85;3.60;;;;;;;;;;5035595;28;20112;-63
2023/07/02 03:47:30;;;;;;;6.40;3.65;;;;;;;;;;5031534;28;20041;-63
2023/07/02 03:49:56;;;;;;;8.98;4.30;;;;;;;;;;5032692;28;20502;-63
2023/07/02 03:52:22;;;;;;;7.15;4.53;;;;;;;;;;5036808;28;20084;-63
2023/07/02 03:54:48;;;;;;;6.78;3.70;;;;;;;;;;5034152;28;20085;-62
2023/07/02 03:57:14;;;;;;;5.30;3.78;;;;;;;;;;5037705;28;20043;-62
2023/07/02 03:59:40;;;;;;;5.25;3.20;;;;;;;;;;5038242;28;20045;-62
2023/07/02 04:02:06;;;;;;;7.80;4.50;;;;;;;;;;5037367;28;20382;-62
2023/07/02 04:04:32;;;;;;;6.75;3.80;;;;;;;;;;5031455;28;20696;-62
2023/07/02 04:06:58;;;;;;;4.82;3.38;;;;;;;;;;5038414;28;20045;-63
2023/07/02 04:09:24;;;;;;;6.00;3.85;;;;;;;;;;5034950;28;20128;-63
2023/07/02 04:11:50;;;;;;;7.13;3.97;;;;;;;;;;5040409;28;20136;-63
2023/07/02 04:14:16;;;;;;;4.60;3.30;;;;;;;;;;5036357;28;20071;-63
2023/07/02 04:16:47;;;;;;;4.18;3.03;;;;;;;;;;5036383;28;20040;-63
2023/07/02 04:19:13;;;;;;;4.15;2.78;;;;;;;;;;5037822;28;20087;-63
2023/07/02 04:21:39;;;;;;;5.28;3.63;;;;;;;;;;5037118;28;20050;-62
2023/07/02 04:24:05;;;;;;;7.75;3.70;;;;;;;;;;5038430;28;20102;-62
2023/07/02 04:26:31;;;;;;;6.22;3.88;;;;;;;;;;5037611;28;20088;-62
2023/07/02 04:28:58;;;;;;;5.70;3.55;;;;;;;;;;5041325;28;20386;-62
2023/07/02 04:31:26;;;;;;;7.70;3.85;;;;;;;;;;5034609;28;20045;-62
2023/07/02 04:33:52;;;;;;;6.32;3.15;;;;;;;;;;5040185;28;20041;-62
2023/07/02 04:36:18;;;;;;;6.55;3.92;;;;;;;;;;5038451;28;20060;-62
2023/07/02 04:38:44;;;;;;;6.05;3.17;;;;;;;;;;5039605;28;20067;-62
2023/07/02 04:41:10;;;;;;;7.22;3.97;;;;;;;;;;5037587;28;20104;-62
2023/07/02 04:43:36;;;;;;;10.60;4.90;;;;;;;;;;5034571;28;20757;-62
2023/07/02 04:46:02;;;;;;;6.30;3.97;;;;;;;;;;5037457;28;20036;-62
2023/07/02 04:48:29;;;;;;;4.47;3.22;;;;;;;;;;5033318;28;20049;-62
2023/07/02 04:50:55;;;;;;;6.85;3.50;;;;;;;;;;5035192;28;20489;-62
2023/07/02 04:53:21;;;;;;;5.28;2.88;;;;;;;;;;5036588;28;20054;-62
2023/07/02 04:55:47;;;;;;;5.07;3.40;;;;;;;;;;5038134;28;20113;-62
2023/07/02 04:58:13;;;;;;;4.97;3.17;;;;;;;;;;5034128;28;20044;-62
2023/07/02 05:00:39;;;;;;;5.93;3.22;;;;;;;;;;5030718;28;20433;-62
2023/07/02 05:03:05;;;;;;;6.60;4.13;;;;;;;;;;5038873;28;20477;-62
2023/07/02 05:05:31;;;;;;;7.97;3.72;;;;;;;;;;5037372;28;20044;-62
2023/07/02 05:07:57;;;;;;;5.15;3.55;;;;;;;;;;5039692;28;20041;-62
2023/07/02 05:10:23;;;;;;;5.13;3.55;;;;;;;;;;5034411;28;20052;-62
2023/07/02 05:12:49;;;;;;;4.57;3.42;;;;;;;;;;5034157;28;20524;-62
2023/07/02 05:15:15;;;;;;;7.35;3.58;;;;;;;;;;5037135;28;20048;-62
2023/07/02 05:17:41;;;;;;;5.43;3.53;;;;;;;;;;5035129;28;20124;-62
2023/07/02 05:20:07;;;;;;;5.38;3.22;;;;;;;;;;5035308;28;20043;-62
2023/07/02 05:22:33;;;;;;;4.75;3.35;;;;;;;;;;5032229;28;20036;-62
2023/07/02 05:24:59;;;;;;;6.60;3.80;;;;;;;;;;5034967;28;20071;-62
2023/07/02 05:27:25;;;;;;;5.50;3.30;;;;;;;;;;5035044;28;20037;-62
2023/07/02 05:29:51;;;;;;;4.07;3.00;;;;;;;;;;5031307;28;20040;-62
2023/07/02 05:32:17;;;;;;;5.72;3.60;;;;;;;;;;5035475;28;20486;-62
2023/07/02 05:34:43;;;;;;;6.72;4.03;;;;;;;;;;5038529;28;20081;-62
2023/07/02 05:37:09;;;;;;;5.90;3.47;;;;;;;;;;5036657;28;20072;-62
2023/07/02 05:39:35;;;;;;;7.25;3.65;;;;;;;;;;5036380;28;20652;-62
2023/07/02 05:42:01;;;;;;;7.68;4.18;;;;;;;;;;5037288;28;20032;-62
2023/07/02 05:44:27;;;;;;;7.60;3.63;;;;;;;;;;5034978;28;20041;-62
2023/07/02 05:46:53;;;;;;;5.95;3.72;;;;;;;;;;5036242;28;20379;-62
2023/07/02 05:49:19;;;;;;;7.03;3.95;;;;;;;;;;5033905;28;20076;-62
2023/07/02 05:51:45;;;;;;;8.65;4.13;;;;;;;;;;5032773;28;20080;-62
2023/07/02 05:54:11;;;;;;;5.50;3.58;;;;;;;;;;5036725;28;20103;-62
2023/07/02 05:56:37;;;;;;;6.55;3.97;;;;;;;;;;5035374;28;20048;-62
2023/07/02 05:59:03;;;;;;;5.53;3.28;;;;;;;;;;5034228;28;20076;-62
2023/07/02 06:01:29;;;;;;;7.18;3.63;;;;;;;;;;5034323;28;20051;-62
2023/07/02 06:03:55;;;;;;;4.40;3.53;;;;;;;;;;5035406;28;20033;-62
2023/07/02 06:06:24;;;;;;;5.47;3.10;;;;;;;;;;5035210;28;20477;-62
2023/07/02 06:08:51;;;;;;;5.30;3.90;;;;;;;;;;5036072;28;20091;-62
2023/07/02 06:11:17;;;;;;;8.30;3.55;;;;;;;;;;5032130;28;20052;-62
2023/07/02 06:13:43;;;;;;;4.22;2.75;;;;;;;;;;5029689;28;20053;-62
2023/07/02 06:16:09;;;;;;;4.43;2.65;;;;;;;;;;5033683;28;20088;-62
2023/07/02 06:18:35;;;;;;;6.72;3.60;;;;;;;;;;5036770;28;20523;-62
2023/07/02 06:21:01;;;;;;;5.93;3.60;;;;;;;;;;5033234;28;20478;-62
2023/07/02 06:23:27;;;;;;;8.27;4.22;;;;;;;;;;5032895;28;20717;-62
2023/07/02 06:25:58;;;;;;;9.40;3.78;;;;;;;;;;5032426;28;20061;-62
2023/07/02 06:28:25;;;;;;;9.02;3.80;;;;;;;;;;5033786;28;20051;-63
2023/07/02 06:30:51;;;;;;;5.90;3.25;;;;;;;;;;5037635;28;20088;-63
2023/07/02 06:33:17;;;;;;;6.28;2.90;;;;;;;;;;5033689;28;20080;-63
2023/07/02 06:35:43;;;;;;;7.30;2.92;;;;;;;;;;5033950;28;20047;-63
2023/07/02 06:38:09;;;;;;;5.47;2.65;;;;;;;;;;5034276;28;20037;-63
2023/07/02 06:40:35;;;;;;;4.40;2.53;;;;;;;;;;5031122;28;21629;-63
2023/07/02 06:43:01;;;;;;;7.57;2.78;;;;;;;;;;5032458;28;20080;-63
2023/07/02 06:45:27;;;;;;;5.82;3.13;;;;;;;;;;5032963;28;20045;-63
2023/07/02 06:47:53;;;;;;;6.07;2.97;;;;;;;;;;5030930;28;20037;-63
2023/07/02 06:50:19;;;;;;;6.93;3.50;;;;;;;;;;5033601;28;20052;-63
2023/07/02 06:52:45;;;;;;;4.95;3.08;;;;;;;;;;5037234;28;20034;-63
2023/07/02 06:55:11;;;;;;;7.20;3.08;;;;;;;;;;5032757;28;20559;-63
2023/07/02 06:57:43;;;;;;;6.75;3.15;;;;;;;;;;5037493;28;20116;-63
2023/07/02 07:00:09;;;;;;;6.63;2.70;;;;;;;;;;5033689;28;20045;-63
2023/07/02 07:02:35;;;;;;;4.35;2.67;;;;;;;;;;5030197;28;20057;-63
2023/07/02 07:05:01;;;;;;;5.10;2.58;;;;;;;;;;5032748;28;20083;-63
2023/07/02 07:07:27;;;;;;;5.22;2.35;;;;;;;;;;5032896;28;20051;-63
2023/07/02 07:09:53;;;;;;;3.35;1.83;;;;;;;;;;5031300;28;20581;-63
2023/07/02 07:12:19;;;;;;;2.55;2.00;;;;;;;;;;5035666;28;20498;-63
2023/07/02 07:14:46;;;;;;;6.07;2.45;;;;;;;;;;5038408;28;20390;-63
2023/07/02 07:17:12;;;;;;;4.13;1.92;;;;;;;;;;5040735;28;20417;-63
2023/07/02 07:19:38;;;;;;;4.03;1.65;;;;;;;;;;5036961;28;20156;-63
2023/07/02 07:22:04;;;;;;;4.47;2.20;;;;;;;;;;5040242;28;20034;-63
2023/07/02 07:24:30;;;;;;;5.38;2.90;;;;;;;;;;5035164;28;20791;-63
2023/07/02 07:26:56;;;;;;;4.25;2.25;;;;;;;;;;5037824;28;20037;-63
2023/07/02 07:29:22;;;;;;;3.33;2.28;;;;;;;;;;5035611;28;20069;-63
2023/07/02 07:31:48;;;;;;;3.80;2.30;;;;;;;;;;5035721;28;20045;-63
2023/07/02 07:34:14;;;;;;;5.95;2.78;;;;;;;;;;5037655;28;20136;-63
2023/07/02 07:36:40;;;;;;;6.93;2.20;;;;;;;;;;5038120;28;20051;-63
2023/07/02 07:39:06;;;;;;;5.18;2.17;;;;;;;;;;5038994;28;20064;-63
2023/07/02 07:41:32;;;;;;;3.60;2.03;;;;;;;;;;5037527;28;20135;-63
2023/07/02 07:43:58;;;;;;;4.68;2.47;;;;;;;;;;5036280;28;20392;-63
2023/07/02 07:46:24;;;;;;;3.38;2.25;;;;;;;;;;5033711;28;20049;-63
2023/07/02 07:48:50;;;;;;;3.40;1.90;;;;;;;;;;5040535;28;20044;-63
2023/07/02 07:51:16;;;;;;;2.72;1.60;;;;;;;;;;5038290;28;20118;-63
2023/07/02 07:53:42;;;;;;;8.48;2.45;;;;;;;;;;5038733;28;20057;-63
2023/07/02 07:56:08;;;;;;;5.28;2.50;;;;;;;;;;5039431;28;20059;-63
2023/07/02 07:58:34;;;;;;;4.47;1.88;;;;;;;;;;5040612;28;20111;-63
2023/07/02 08:01:00;;;;;;;4.20;2.45;;;;;;;;;;5037414;28;20486;-63
2023/07/02 08:03:26;;;;;;;4.40;2.08;;;;;;;;;;5034098;28;20520;-63
2023/07/02 08:05:53;;;;;;;4.90;2.15;;;;;;;;;;5031091;28;20081;-63
2023/07/02 08:08:18;;;;;;;4.72;2.65;;;;;;;;;;5045266;28;20064;-64
2023/07/02 08:10:46;;;;;;;5.15;2.30;;;;;;;;;;5034540;28;20054;-64
2023/07/02 08:13:12;;;;;;;4.97;2.38;;;;;;;;;;5034299;28;20139;-64
2023/07/02 08:15:38;;;;;;;4.20;2.25;;;;;;;;;;5034525;28;20037;-64
2023/07/02 08:18:07;;;;;;;4.03;2.20;;;;;;;;;;5044493;28;20072;-60
2023/07/02 08:20:33;;;;;;;3.28;2.10;;;;;;;;;;5046252;28;20120;-59
2023/07/02 08:22:59;;;;;;;3.95;1.98;;;;;;;;;;5035848;28;20045;-63
2023/07/02 08:25:26;;;;;;;6.03;2.70;;;;;;;;;;5035849;28;20040;-60
2023/07/02 08:27:53;;;;;;;5.68;2.63;;;;;;;;;;5033258;28;20058;-62
2023/07/02 08:30:19;;;;;;;3.25;1.98;;;;;;;;;;5039838;28;20047;-62
2023/07/02 08:32:46;;;;;;;4.65;2.53;;;;;;;;;;5030088;28;20336;-62
2023/07/02 08:35:12;;;;;;;4.80;2.53;;;;;;;;;;5039111;28;20501;-62
2023/07/02 08:37:38;;;;;;;4.05;2.20;;;;;;;;;;5039905;28;20040;-62
2023/07/02 08:40:04;;;;;;;3.53;2.40;;;;;;;;;;5028482;28;20041;-62
2023/07/02 08:42:32;;;;;;;9.07;2.88;;;;;;;;;;5026619;28;20394;-62
2023/07/02 08:45:00;;;;;;;4.45;2.58;;;;;;;;;;5037047;28;20140;-62
2023/07/02 08:47:26;;;;;;;6.45;2.63;;;;;;;;;;5028784;28;20045;-62
2023/07/02 08:49:53;;;;;;;4.75;2.63;;;;;;;;;;5037361;28;20048;-62
2023/07/02 08:52:19;;;;;;;5.05;2.60;;;;;;;;;;5030216;28;20493;-62
2023/07/02 08:54:45;;;;;;;3.78;2.03;;;;;;;;;;5033993;28;20536;-62
2023/07/02 08:57:11;;;;;;;4.55;2.03;;;;;;;;;;5033865;28;20116;-62
2023/07/02 08:59:37;;;;;;;6.88;2.28;;;;;;;;;;5039426;28;20056;-62
2023/07/02 09:02:04;;;;;;;4.93;2.58;;;;;;;;;;5044984;28;20090;-63
2023/07/02 09:04:30;;;;;;;6.65;2.38;;;;;;;;;;5031451;28;20052;-63
2023/07/02 09:07:06;;;;;;;4.43;2.25;;;;;;;;;;5043696;28;20405;-65
2023/07/02 09:09:33;;;;;;;6.82;2.40;;;;;;;;;;5046956;28;20098;-63
2023/07/02 09:11:59;;;;;;;5.03;2.17;;;;;;;;;;5047557;28;20057;-63
2023/07/02 09:14:28;;;;;;;8.48;2.97;;;;;;;;;;5043637;28;20049;-63
2023/07/02 09:17:05;;;;;;;3.10;1.73;;;;;;;;;;5042958;28;20053;-63
2023/07/02 09:19:31;;;;;;;2.83;1.50;;;;;;;;;;5038212;28;20132;-62
2023/07/02 09:22:01;;;;;;;4.68;1.98;;;;;;;;;;5027160;28;20141;-62
2023/07/02 09:24:29;;;;;;;2.33;1.63;;;;;;;;;;5027737;28;20057;-62
2023/07/02 09:26:59;;;;;;;2.85;1.40;;;;;;;;;;5042247;28;20489;-62
2023/07/02 09:29:28;;;;;;;4.25;2.10;;;;;;;;;;5039984;28;20134;-62
2023/07/02 09:31:55;;;;;;;3.63;1.90;;;;;;;;;;5045051;28;20072;-62
2023/07/02 09:34:26;;;;;;;6.53;2.35;;;;;;;;;;5039776;28;20045;-63
2023/07/02 09:36:53;;;;;;;2.83;1.63;;;;;;;;;;5045107;28;20064;-63
2023/07/02 09:39:22;;;;;;;2.78;1.70;;;;;;;;;;5029300;28;20302;-63
2023/07/02 09:41:49;;;;;;;3.25;1.80;;;;;;;;;;5030885;28;20049;-63
2023/07/02 09:44:16;;;;;;;3.90;2.17;;;;;;;;;;5033671;28;20088;-63
2023/07/02 09:46:45;;;;;;;2.80;1.55;;;;;;;;;;5031774;28;20104;-63
2023/07/02 09:49:14;;;;;;;3.90;1.60;;;;;;;;;;5038676;28;20094;-63
2023/07/02 09:51:42;;;;;;;2.63;1.60;;;;;;;;;;5031269;28;20150;-63
2023/07/02 09:54:08;;;;;;;4.30;1.77;;;;;;;;;;5036389;28;20521;-63
2023/07/02 09:56:34;;;;;;;5.68;2.13;;;;;;;;;;5035341;28;20472;-63
2023/07/02 09:59:00;;;;;;;3.10;1.75;;;;;;;;;;5030135;28;20041;-63
2023/07/02 10:01:26;;;;;;;3.05;1.88;;;;;;;;;;5031261;28;20651;-63
2023/07/02 10:03:52;;;;;;;3.55;1.60;;;;;;;;;;5030048;28;20120;-63
2023/07/02 10:06:18;;;;;;;3.40;1.40;;;;;;;;;;5030417;28;20033;-63
2023/07/02 10:08:57;;;;;;;2.70;1.75;;;;;;;;;;5032374;28;20505;-63
2023/07/02 10:11:35;;;;;;;3.92;2.13;;;;;;;;;;5028504;28;20060;-62
2023/07/02 10:14:01;;;;;;;2.67;2.05;;;;;;;;;;5030797;28;20056;-62
2023/07/02 10:16:28;;;;;;;5.18;2.00;;;;;;;;;;5037106;28;20149;-63
2023/07/02 10:18:54;;;;;;;4.80;2.80;;;;;;;;;;5030931;28;20049;-63
2023/07/02 10:21:20;;;;;;;7.03;2.20;;;;;;;;;;5031581;28;20042;-63
2023/07/02 10:23:47;;;;;;;3.95;1.90;;;;;;;;;;5033132;28;20044;-63
2023/07/02 10:26:17;;;;;;;3.10;2.10;;;;;;;;;;5030771;28;20188;-63
2023/07/02 10:28:43;;;;;;;4.30;2.67;;;;;;;;;;5035339;28;20045;-63
2023/07/02 10:31:20;;;;;;;5.53;2.38;;;;;;;;;;5033120;28;20117;-63
2023/07/02 10:33:46;;;;;;;5.78;2.10;;;;;;;;;;5033032;28;20500;-63
2023/07/02 10:36:20;;;;;;;4.13;2.30;;;;;;;;;;5037049;28;20045;-63
2023/07/02 10:38:46;;;;;;;4.40;2.25;;;;;;;;;;5034331;28;20405;-63
2023/07/02 10:41:13;;;;;;;2.75;1.85;;;;;;;;;;5038497;28;20493;-63
2023/07/02 10:43:39;;;;;;;5.50;2.30;;;;;;;;;;5034883;28;20935;-63
2023/07/02 10:46:05;;;;;;;8.48;2.85;;;;;;;;;;5033428;28;20045;-63
2023/07/02 10:48:31;;;;;;;5.03;2.47;;;;;;;;;;5028168;28;20060;-63
2023/07/02 10:50:57;;;;;;;5.40;2.10;;;;;;;;;;5034201;28;20551;-63
2023/07/02 10:53:24;;;;;;;6.28;2.10;;;;;;;;;;5036620;28;20041;-63
2023/07/02 10:55:57;;;;;;;3.20;1.88;;;;;;;;;;5041397;28;20402;-63
2023/07/02 10:58:23;;;;;;;4.05;1.85;;;;;;;;;;5044897;28;20425;-63
2023/07/02 11:00:50;;;;;;;3.28;1.95;;;;;;;;;;5041696;28;20473;-63
2023/07/02 11:03:23;;;;;;;4.43;1.80;;;;;;;;;;5027914;28;20037;-63
2023/07/02 11:05:50;;;;;;;1.98;1.40;;;;;;;;;;5028717;28;20045;-63
2023/07/02 11:08:16;;;;;;;6.15;2.17;;;;;;;;;;5033187;28;20025;-63
2023/07/02 11:10:43;;;;;;;6.57;2.83;;;;;;;;;;5030672;28;20057;-63
2023/07/02 11:13:15;;;;;;;5.25;2.33;;;;;;;;;;5033031;28;20156;-63
2023/07/02 11:15:42;;;;;;;4.40;2.22;;;;;;;;;;5034131;28;20395;-63
2023/07/02 11:18:11;;;;;;;3.20;2.05;;;;;;;;;;5030939;28;20038;-63
2023/07/02 11:20:39;;;;;;;3.53;1.90;;;;;;;;;;5031708;28;20041;-63
2023/07/02 11:23:05;;;;;;;4.68;2.10;;;;;;;;;;5028784;28;20997;-63
2023/07/02 11:25:31;;;;;;;5.75;2.10;;;;;;;;;;5030001;28;20410;-64
2023/07/02 11:28:04;;;;;;;3.05;1.92;;;;;;;;;;5040350;28;20033;-64
2023/07/02 11:30:30;;;;;;;5.82;2.10;;;;;;;;;;5037591;28;20040;-63
2023/07/02 11:32:56;;;;;;;2.55;1.75;;;;;;;;;;5030658;28;20231;-63
2023/07/02 11:35:23;;;;;;;3.40;1.48;;;;;;;;;;5040095;28;20428;-63
2023/07/02 11:37:49;;;;;;;2.20;1.50;;;;;;;;;;5031708;28;20033;-63
2023/07/02 11:40:17;;;;;;;2.38;1.48;;;;;;;;;;5042104;28;20037;-63
2023/07/02 11:42:43;;;;;;;1.88;1.17;;;;;;;;;;5042512;28;20047;-63
2023/07/02 11:45:10;;;;;;;6.05;2.10;;;;;;;;;;5033615;28;20045;-63
2023/07/02 11:47:36;;;;;;;5.55;1.77;;;;;;;;;;5042941;28;20084;-63
2023/07/02 11:50:02;;;;;;;2.75;1.80;;;;;;;;;;5036371;28;20041;-63
2023/07/02 11:52:28;;;;;;;3.78;1.95;;;;;;;;;;5029321;28;20033;-63
2023/07/02 11:54:54;;;;;;;3.35;1.85;;;;;;;;;;5031800;28;20570;-63
2023/07/02 11:57:22;;;;;;;2.42;1.50;;;;;;;;;;5036556;28;20040;-63
2023/07/02 11:59:49;;;;;;;3.60;1.63;;;;;;;;;;5039607;28;20740;-63
2023/07/02 12:02:15;;;;;;;3.83;2.13;;;;;;;;;;5032436;28;20413;-63
2023/07/02 12:04:41;;;;;;;4.07;2.15;;;;;;;;;;5042212;28;20060;-63
2023/07/02 12:07:07;;;;;;;6.13;2.30;;;;;;;;;;5035293;28;20043;-63
2023/07/02 12:09:33;;;;;;;4.97;2.38;;;;;;;;;;5034568;28;20033;-63
2023/07/02 12:11:59;;;;;;;4.28;2.13;;;;;;;;;;5039907;28;20061;-63
2023/07/02 12:14:25;;;;;;;2.85;2.17;;;;;;;;;;5036007;28;20087;-63
2023/07/02 12:16:51;;;;;;;2.92;1.85;;;;;;;;;;5030396;28;20511;-63
2023/07/02 12:19:17;;;;;;;6.22;2.80;;;;;;;;;;5038210;28;20033;-63
2023/07/02 12:21:43;;;;;;;4.45;2.13;;;;;;;;;;5038674;28;20038;-63
2023/07/02 12:24:10;;;;;;;3.78;1.90;;;;;;;;;;5030601;28;20037;-63
2023/07/02 12:26:37;;;;;;;3.47;2.20;;;;;;;;;;5029195;28;20045;-63
2023/07/02 12:29:03;;;;;;;2.50;2.00;;;;;;;;;;5031773;28;20477;-63
2023/07/02 12:31:30;;;;;;;3.45;2.05;;;;;;;;;;5029288;28;20049;-63
2023/07/02 12:33:56;;;;;;;4.85;2.55;;;;;;;;;;5035425;28;20526;-63
2023/07/02 12:36:22;;;;;;;3.72;2.13;;;;;;;;;;5039517;28;20160;-63
2023/07/02 12:38:48;;;;;;;3.20;2.17;;;;;;;;;;5036975;28;20052;-63
2023/07/02 12:41:14;;;;;;;3.17;2.00;;;;;;;;;;5041292;28;20405;-63
2023/07/02 12:43:40;;;;;;;7.18;2.58;;;;;;;;;;5040323;28;20044;-63
2023/07/02 12:46:07;;;;;;;3.13;1.85;;;;;;;;;;5039104;28;20044;-63
2023/07/02 12:48:33;;;;;;;3.58;2.05;;;;;;;;;;5033989;28;20120;-63
2023/07/02 12:51:00;;;;;;;5.00;2.40;;;;;;;;;;5030876;28;20041;-63
2023/07/02 12:53:26;;;;;;;5.90;2.83;;;;;;;;;;5036435;28;20585;-63
2023/07/02 12:55:52;;;;;;;4.32;2.55;;;;;;;;;;5038982;28;20029;-63
2023/07/02 12:58:18;;;;;;;2.97;2.20;;;;;;;;;;5036353;28;20482;-63
2023/07/02 13:00:45;;;;;;;6.13;2.40;;;;;;;;;;5037037;28;20036;-63
2023/07/02 13:03:12;;;;;;;8.15;2.85;;;;;;;;;;5042836;28;20128;-63
2023/07/02 13:05:38;;;;;;;4.85;2.40;;;;;;;;;;5037749;28;20076;-59
2023/07/02 13:08:04;;;;;;;6.40;3.13;;;;;;;;;;5039286;28;20037;-64
2023/07/02 13:10:31;;;;;;;13.95;4.35;;;;;;;;;;5037663;28;20064;-67
2023/07/02 13:12:57;;;;;;;7.03;3.85;;;;;;;;;;5046403;28;20118;-62
2023/07/02 13:15:23;;;;;;;6.18;3.15;;;;;;;;;;5046229;28;20044;-63
2023/07/02 13:17:49;;;;;;;8.13;3.50;;;;;;;;;;5048455;28;20052;-63
2023/07/02 13:20:15;;;;;;;6.68;3.63;;;;;;;;;;5046786;28;20052;-64
2023/07/02 13:22:41;;;;;;;7.30;3.97;;;;;;;;;;5028402;28;20044;-64
2023/07/02 13:25:07;;;;;;;5.18;3.03;;;;;;;;;;5028515;28;20037;-64
2023/07/02 13:27:33;;;;;;;6.43;3.50;;;;;;;;;;5044242;28;20047;-63
2023/07/02 13:30:00;;;;;;;3.83;2.92;;;;;;;;;;5033144;28;20041;-63
2023/07/02 13:32:26;;;;;;;7.03;3.50;;;;;;;;;;5027077;28;20041;-63
2023/07/02 13:34:52;;;;;;;6.55;3.22;;;;;;;;;;5037007;28;20370;-63
2023/07/02 13:37:18;;;;;;;4.88;3.08;;;;;;;;;;5046209;28;20132;-63
2023/07/02 13:39:48;;;;;;;9.43;3.10;;;;;;;;;;5040811;28;20394;-63
2023/07/02 13:42:14;;;;;;;5.80;3.10;;;;;;;;;;5034646;28;20116;-63
2023/07/02 13:44:40;;;;;;;3.88;2.85;;;;;;;;;;5037319;28;20045;-63
2023/07/02 13:47:06;;;;;;;7.38;2.85;;;;;;;;;;5028006;28;20041;-63
2023/07/02 13:49:32;;;;;;;8.43;3.45;;;;;;;;;;5043531;28;20132;-63
2023/07/02 13:51:59;;;;;;;7.55;3.92;;;;;;;;;;5045721;28;20044;-63
2023/07/02 13:54:25;;;;;;;7.30;3.47;;;;;;;;;;5046113;28;20045;-63
2023/07/02 13:56:51;;;;;;;9.98;3.55;;;;;;;;;;5046017;28;20043;-63
2023/07/02 13:59:17;;;;;;;4.90;3.13;;;;;;;;;;5046134;28;20079;-63
2023/07/02 14:01:44;;;;;;;6.38;3.17;;;;;;;;;;5045716;28;20044;-63
2023/07/02 14:04:11;;;;;;;6.20;3.13;;;;;;;;;;5045809;28;20464;-63
2023/07/02 14:06:37;;;;;;;3.90;2.92;;;;;;;;;;5045066;28;20131;-63
2023/07/02 14:09:03;;;;;;;6.05;3.28;;;;;;;;;;5044559;28;20055;-62
2023/07/02 14:11:30;;;;;;;7.00;2.80;;;;;;;;;;5044739;28;20382;-62
2023/07/02 14:13:56;;;;;;;6.05;3.22;;;;;;;;;;5045133;28;20303;-62
2023/07/02 14:16:23;;;;;;;6.10;3.38;;;;;;;;;;5044268;28;20223;-62
2023/07/02 14:18:50;;;;;;;5.68;3.38;;;;;;;;;;5045476;28;20409;-62
2023/07/02 14:21:16;;;;;;;4.72;2.97;;;;;;;;;;5046304;28;20041;-62
2023/07/02 14:23:42;;;;;;;4.68;2.90;;;;;;;;;;5046136;28;20087;-62
2023/07/02 14:26:08;;;;;;;4.95;2.95;;;;;;;;;;5046619;28;20135;-62
2023/07/02 14:28:34;;;;;;;5.68;3.03;;;;;;;;;;5046760;28;20048;-62
2023/07/02 14:31:01;;;;;;;9.70;3.80;;;;;;;;;;5046244;28;20045;-62
2023/07/02 14:33:27;;;;;;;6.53;3.22;;;;;;;;;;5045987;28;20115;-62
2023/07/02 14:35:54;;;;;;;5.65;2.88;;;;;;;;;;5046539;28;20097;-62
2023/07/02 14:38:20;;;;;;;4.65;2.88;;;;;;;;;;5045451;28;20036;-62